Time;durP1;ratioP1;P1;durP2;ratioP2;P2;SDS_P1;SDS_P2;PMS_P1;PMS_P2;Temp;Humidity;BMP_temperature;BMP_pressure;BME280_temperature;BME280_humidity;BME280_pressure;Samples;Min_cycle;Max_cycle;Signal;HPM_P1;HPM_P2
2022/11/20 00:00:51;;;;;;;16.13;10.50;;;-0.10;99.90;;;;;;5009715;28;20080;-72
2022/11/20 00:03:17;;;;;;;16.40;10.57;;;-0.10;99.90;;;;;;5005820;28;20081;-71
2022/11/20 00:05:43;;;;;;;20.83;11.65;;;-0.10;99.90;;;;;;5013238;28;20465;-72
2022/11/20 00:08:08;;;;;;;16.42;10.55;;;-0.10;99.90;;;;;;5006522;28;20120;-71
2022/11/20 00:10:36;;;;;;;18.85;11.55;;;-0.20;99.90;;;;;;5003169;28;20120;-72
2022/11/20 00:13:02;;;;;;;19.67;12.52;;;-0.20;99.90;;;;;;4994926;28;20053;-72
2022/11/20 00:15:28;;;;;;;19.50;11.20;;;-0.20;99.90;;;;;;5011768;28;20052;-72
2022/11/20 00:17:54;;;;;;;19.83;11.43;;;-0.20;99.90;;;;;;4995034;28;20509;-72
2022/11/20 00:20:19;;;;;;;18.27;11.18;;;-0.10;99.90;;;;;;5012213;28;20049;-72
2022/11/20 00:22:45;;;;;;;20.23;12.63;;;-0.10;99.90;;;;;;5003829;28;20065;-72
2022/11/20 00:25:11;;;;;;;19.25;11.45;;;0.00;99.90;;;;;;4991721;28;20066;-72
2022/11/20 00:27:37;;;;;;;21.55;12.02;;;0.00;99.90;;;;;;4998924;28;20042;-72
2022/11/20 00:30:03;;;;;;;20.35;12.48;;;0.10;99.90;;;;;;4993064;28;20038;-72
2022/11/20 00:32:29;;;;;;;18.55;11.10;;;0.20;99.90;;;;;;5010950;28;20034;-72
2022/11/20 00:34:55;;;;;;;20.50;12.20;;;0.10;99.90;;;;;;5012868;28;20070;-72
2022/11/20 00:37:21;;;;;;;18.27;12.02;;;-0.10;99.90;;;;;;4991741;28;20089;-72
2022/11/20 00:39:46;;;;;;;19.58;11.85;;;-0.20;99.90;;;;;;4992424;28;20046;-72
2022/11/20 00:42:12;;;;;;;18.15;10.57;;;-0.20;99.90;;;;;;5008979;28;20034;-72
2022/11/20 00:44:37;;;;;;;15.85;9.35;;;0.00;99.90;;;;;;4995806;28;20103;-72
2022/11/20 00:47:03;;;;;;;14.57;9.15;;;0.10;99.90;;;;;;5012670;28;20037;-72
2022/11/20 00:49:28;;;;;;;14.18;9.20;;;0.20;99.90;;;;;;5013234;28;20042;-72
2022/11/20 00:51:54;;;;;;;16.20;9.05;;;0.30;99.90;;;;;;5010916;28;20089;-72
2022/11/20 00:54:19;;;;;;;14.77;9.32;;;0.40;99.90;;;;;;5011979;28;20038;-72
2022/11/20 00:56:45;;;;;;;14.32;8.40;;;0.30;99.90;;;;;;5012516;28;20064;-71
2022/11/20 00:59:11;;;;;;;14.23;8.40;;;0.10;99.90;;;;;;5011042;28;20050;-72
2022/11/20 01:01:37;;;;;;;13.25;8.20;;;0.20;99.90;;;;;;5011875;28;20045;-72
2022/11/20 01:04:03;;;;;;;14.23;9.25;;;0.20;99.90;;;;;;5016532;28;20061;-72
2022/11/20 01:06:33;;;;;;;16.52;9.15;;;0.20;99.90;;;;;;5014779;28;20046;-72
2022/11/20 01:09:01;;;;;;;15.27;9.52;;;0.10;99.90;;;;;;5016874;28;20042;-72
2022/11/20 01:11:30;;;;;;;14.85;8.82;;;0.20;99.90;;;;;;5015016;28;20053;-72
2022/11/20 01:13:57;;;;;;;15.82;9.93;;;0.20;99.90;;;;;;5016855;28;20108;-72
2022/11/20 01:16:25;;;;;;;17.35;8.98;;;0.20;99.90;;;;;;4995094;28;20030;-72
2022/11/20 01:18:53;;;;;;;15.10;9.27;;;0.20;99.90;;;;;;4996049;28;20097;-72
2022/11/20 01:21:22;;;;;;;14.95;10.07;;;0.30;99.90;;;;;;4995712;28;20047;-72
2022/11/20 01:23:48;;;;;;;15.70;9.50;;;0.30;99.90;;;;;;4996969;28;20113;-72
2022/11/20 01:26:17;;;;;;;15.30;9.35;;;0.30;99.90;;;;;;5016452;28;20072;-72
2022/11/20 01:28:43;;;;;;;15.68;9.95;;;0.30;99.90;;;;;;5016453;28;20045;-72
2022/11/20 01:31:23;;;;;;;15.02;9.68;;;0.30;99.90;;;;;;4998063;28;20611;-72
2022/11/20 01:33:51;;;;;;;16.10;10.00;;;0.20;99.90;;;;;;5030976;28;20045;-72
2022/11/20 01:36:19;;;;;;;17.67;10.45;;;0.20;99.90;;;;;;5015019;28;20490;-72
2022/11/20 01:38:45;;;;;;;14.77;9.90;;;0.20;99.90;;;;;;5016277;28;20050;-72
2022/11/20 01:43:20;;;;;;;17.13;10.13;;;0.30;99.90;;;;;;5014096;28;20117;-72
2022/11/20 01:43:58;;;;;;;15.90;9.57;;;0.30;99.90;;;;;;5014945;28;20062;-72
2022/11/20 01:46:24;;;;;;;15.30;9.68;;;0.20;99.90;;;;;;5015166;28;20065;-72
2022/11/20 01:48:53;;;;;;;14.02;9.00;;;0.30;99.90;;;;;;5014876;28;20486;-72
2022/11/20 01:51:38;;;;;;;16.00;10.05;;;0.40;99.90;;;;;;5015395;28;20041;-72
2022/11/20 01:54:10;;;;;;;14.50;8.98;;;0.30;99.90;;;;;;5013799;28;20049;-72
2022/11/20 01:56:38;;;;;;;17.27;9.77;;;0.30;99.90;;;;;;5014727;28;20037;-72
2022/11/20 01:59:06;;;;;;;16.08;9.77;;;0.40;99.90;;;;;;5013770;28;20124;-72
2022/11/20 02:01:33;;;;;;;14.73;9.55;;;0.40;99.90;;;;;;5014854;28;20034;-72
2022/11/20 02:03:59;;;;;;;14.65;9.45;;;0.20;99.90;;;;;;5014689;28;20050;-72
2022/11/20 02:06:45;;;;;;;16.52;9.63;;;0.30;99.90;;;;;;5015604;28;20512;-72
2022/11/20 02:09:11;;;;;;;15.25;8.80;;;0.30;99.90;;;;;;4998240;28;20517;-72
2022/11/20 02:11:37;;;;;;;16.00;8.82;;;0.30;99.90;;;;;;5014976;28;20125;-72
2022/11/20 02:14:03;;;;;;;14.82;9.13;;;0.40;99.90;;;;;;5012875;28;20081;-72
2022/11/20 02:16:34;;;;;;;15.80;9.40;;;0.40;99.90;;;;;;5010892;28;20116;-72
2022/11/20 02:19:03;;;;;;;14.18;8.63;;;0.40;99.90;;;;;;5014131;28;20109;-72
2022/11/20 02:21:53;;;;;;;15.38;9.25;;;0.40;99.90;;;;;;5013866;28;20499;-72
2022/11/20 02:24:20;;;;;;;14.45;9.38;;;0.40;99.90;;;;;;5014340;28;20041;-72
2022/11/20 02:26:55;;;;;;;14.63;9.13;;;0.40;99.90;;;;;;5015345;28;20069;-72
2022/11/20 02:29:32;;;;;;;16.17;9.25;;;0.40;99.90;;;;;;5015234;28;20045;-72
2022/11/20 02:32:00;;;;;;;15.23;8.75;;;0.50;99.90;;;;;;5013179;28;20509;-72
2022/11/20 02:34:25;;;;;;;15.95;9.07;;;0.60;99.90;;;;;;5013268;28;20049;-72
2022/11/20 02:36:52;;;;;;;16.63;9.70;;;0.60;99.90;;;;;;5013074;28;20046;-72
2022/11/20 02:39:20;;;;;;;16.27;9.43;;;0.50;99.90;;;;;;5015267;28;20046;-72
2022/11/20 02:41:46;;;;;;;14.82;8.82;;;0.60;99.90;;;;;;5013432;28;20092;-72
2022/11/20 02:44:12;;;;;;;15.13;9.02;;;0.60;99.90;;;;;;5009870;28;20046;-72
2022/11/20 02:46:37;;;;;;;14.48;8.68;;;0.70;99.90;;;;;;5013125;28;20438;-72
2022/11/20 02:49:04;;;;;;;14.38;8.68;;;0.80;99.90;;;;;;5015092;28;20041;-72
2022/11/20 02:51:31;;;;;;;15.82;10.00;;;0.90;99.90;;;;;;5014303;28;20478;-72
2022/11/20 02:53:56;;;;;;;15.10;9.02;;;0.90;99.90;;;;;;5011741;28;20513;-72
2022/11/20 02:56:22;;;;;;;15.20;9.05;;;0.80;99.90;;;;;;5014697;28;20042;-72
2022/11/20 02:58:48;;;;;;;15.05;9.10;;;0.80;99.90;;;;;;4997108;28;20046;-72
2022/11/20 03:01:14;;;;;;;16.33;10.18;;;0.70;99.90;;;;;;5014149;28;20033;-72
2022/11/20 03:03:39;;;;;;;15.85;9.60;;;0.70;99.90;;;;;;5013666;28;20074;-72
2022/11/20 03:06:05;;;;;;;15.02;9.85;;;0.70;99.90;;;;;;5013408;28;20476;-72
2022/11/20 03:08:31;;;;;;;15.50;9.13;;;0.70;99.90;;;;;;5014684;28;20066;-72
2022/11/20 03:10:56;;;;;;;17.30;9.68;;;0.70;99.90;;;;;;5013826;28;20030;-72
2022/11/20 03:13:22;;;;;;;15.38;10.05;;;0.70;99.90;;;;;;5012378;28;20489;-72
2022/11/20 03:15:47;;;;;;;15.23;9.00;;;0.70;99.90;;;;;;5013413;28;20034;-72
2022/11/20 03:18:13;;;;;;;14.55;9.27;;;0.60;99.90;;;;;;5014596;28;20037;-72
2022/11/20 03:20:39;;;;;;;15.55;9.65;;;0.70;99.90;;;;;;5014344;28;20494;-72
2022/11/20 03:23:05;;;;;;;16.45;9.95;;;0.70;99.90;;;;;;5012344;28;20112;-72
2022/11/20 03:25:30;;;;;;;16.85;10.32;;;0.70;99.90;;;;;;5013557;28;20041;-72
2022/11/20 03:27:56;;;;;;;15.55;9.25;;;0.60;99.90;;;;;;4996943;28;20100;-72
2022/11/20 03:30:22;;;;;;;17.17;9.63;;;0.70;99.90;;;;;;5013067;28;20042;-72
2022/11/20 03:32:47;;;;;;;15.38;9.45;;;0.70;99.90;;;;;;5011793;28;20054;-72
2022/11/20 03:35:13;;;;;;;17.15;9.60;;;0.70;99.90;;;;;;5012673;28;20509;-72
2022/11/20 03:37:38;;;;;;;15.05;9.25;;;0.80;99.90;;;;;;5012290;28;20048;-72
2022/11/20 03:40:05;;;;;;;15.40;9.23;;;0.90;99.90;;;;;;5014006;28;20483;-72
2022/11/20 03:42:46;;;;;;;16.90;9.45;;;0.90;99.90;;;;;;5013912;28;20042;-72
2022/11/20 03:45:13;;;;;;;16.48;9.93;;;0.80;99.90;;;;;;5013366;28;20042;-72
2022/11/20 03:47:39;;;;;;;16.73;9.82;;;0.80;99.90;;;;;;4996232;28;20037;-72
2022/11/20 03:50:05;;;;;;;13.45;8.45;;;0.70;99.90;;;;;;5013926;28;20566;-72
2022/11/20 03:52:30;;;;;;;15.48;9.38;;;0.70;99.90;;;;;;5008071;28;20050;-72
2022/11/20 03:54:56;;;;;;;14.82;9.07;;;0.80;99.90;;;;;;5010832;28;20042;-72
2022/11/20 03:57:21;;;;;;;16.45;9.00;;;0.90;99.90;;;;;;5013700;28;20083;-72
2022/11/20 03:59:47;;;;;;;15.73;8.98;;;0.90;99.90;;;;;;5012699;28;20045;-72
2022/11/20 04:02:13;;;;;;;14.77;8.68;;;0.90;99.90;;;;;;5013092;28;20038;-72
2022/11/20 04:04:38;;;;;;;14.68;8.57;;;1.10;99.90;;;;;;5008254;28;20514;-72
2022/11/20 04:07:04;;;;;;;14.23;8.90;;;1.20;99.90;;;;;;4992768;28;20042;-72
2022/11/20 04:09:30;;;;;;;14.70;8.95;;;1.20;99.90;;;;;;4994191;28;20050;-72
2022/11/20 04:11:56;;;;;;;16.50;9.18;;;1.10;99.90;;;;;;4985026;28;20048;-72
2022/11/20 04:14:21;;;;;;;15.73;9.30;;;1.00;99.90;;;;;;5012660;28;20441;-72
2022/11/20 04:16:47;;;;;;;14.80;9.23;;;1.00;99.90;;;;;;5013536;28;20121;-72
2022/11/20 04:19:15;;;;;;;15.73;9.65;;;1.00;99.90;;;;;;5012488;28;20088;-72
2022/11/20 04:21:42;;;;;;;13.95;7.95;;;1.00;99.90;;;;;;5011806;28;20057;-72
2022/11/20 04:24:07;;;;;;;15.00;9.55;;;1.00;99.90;;;;;;5011382;28;20041;-72
2022/11/20 04:26:34;;;;;;;14.30;9.00;;;1.10;99.90;;;;;;5012253;28;20395;-71
2022/11/20 04:29:01;;;;;;;14.07;9.13;;;1.10;99.90;;;;;;5012156;28;20038;-72
2022/11/20 04:31:33;;;;;;;14.95;9.70;;;1.00;99.90;;;;;;5011367;28;20041;-72
2022/11/20 04:34:03;;;;;;;14.63;9.05;;;1.00;99.90;;;;;;5011283;28;20034;-72
2022/11/20 04:36:30;;;;;;;15.45;9.27;;;1.00;99.90;;;;;;5011576;28;20034;-72
2022/11/20 04:38:58;;;;;;;16.25;8.93;;;1.00;99.90;;;;;;5015763;28;20084;-72
2022/11/20 04:41:26;;;;;;;16.60;9.52;;;1.10;99.90;;;;;;5015286;28;20114;-72
2022/11/20 04:43:58;;;;;;;16.30;9.68;;;1.00;99.90;;;;;;5016697;28;20449;-72
2022/11/20 04:46:24;;;;;;;15.82;10.05;;;1.00;99.90;;;;;;5015962;28;20049;-72
2022/11/20 04:48:50;;;;;;;15.05;9.27;;;0.90;99.90;;;;;;5017168;28;20041;-72
2022/11/20 04:51:15;;;;;;;14.77;9.30;;;0.90;99.90;;;;;;4999298;28;20045;-71
2022/11/20 04:53:41;;;;;;;16.08;9.50;;;1.00;99.90;;;;;;4998947;28;20038;-72
2022/11/20 04:56:09;;;;;;;14.75;8.73;;;1.00;99.90;;;;;;5017013;28;20547;-72
2022/11/20 04:58:35;;;;;;;14.93;8.90;;;1.10;99.90;;;;;;4999527;28;20115;-72
2022/11/20 05:01:04;;;;;;;14.90;9.63;;;1.10;99.90;;;;;;4998841;28;20085;-72
2022/11/20 05:03:30;;;;;;;16.17;9.40;;;1.10;99.90;;;;;;5014573;28;20189;-72
2022/11/20 05:05:55;;;;;;;15.52;9.32;;;1.10;99.90;;;;;;5015558;28;20155;-72
2022/11/20 05:08:21;;;;;;;15.63;9.68;;;1.10;99.90;;;;;;5017052;28;20062;-72
2022/11/20 05:10:46;;;;;;;14.77;9.77;;;1.10;99.90;;;;;;5015533;28;20497;-72
2022/11/20 05:13:12;;;;;;;14.80;9.13;;;1.10;99.90;;;;;;5013540;28;20402;-72
2022/11/20 05:15:38;;;;;;;15.18;9.60;;;1.10;99.90;;;;;;5015814;28;20417;-72
2022/11/20 05:18:03;;;;;;;15.55;9.73;;;1.10;99.90;;;;;;5015396;28;20475;-72
2022/11/20 05:20:29;;;;;;;15.35;9.95;;;1.10;99.90;;;;;;5015608;28;20445;-72
2022/11/20 05:22:58;;;;;;;15.18;9.57;;;1.20;99.90;;;;;;5015069;28;20049;-72
2022/11/20 05:25:23;;;;;;;15.07;9.73;;;1.20;99.90;;;;;;5015133;28;20124;-72
2022/11/20 05:27:49;;;;;;;16.15;9.65;;;1.20;99.90;;;;;;5016083;28;20109;-72
2022/11/20 05:30:14;;;;;;;15.65;9.60;;;1.10;99.90;;;;;;5015761;28;20096;-71
2022/11/20 05:32:40;;;;;;;16.13;9.50;;;1.20;99.90;;;;;;5016310;28;20040;-72
2022/11/20 05:35:06;;;;;;;14.48;9.02;;;1.20;99.90;;;;;;5013682;28;20045;-72
2022/11/20 05:37:32;;;;;;;14.95;9.63;;;1.20;99.90;;;;;;5015427;28;20038;-72
2022/11/20 05:39:57;;;;;;;16.52;9.57;;;1.20;99.90;;;;;;5012712;28;20038;-72
2022/11/20 05:42:32;;;;;;;13.63;8.38;;;1.30;99.90;;;;;;5015482;28;20037;-71
2022/11/20 05:45:03;;;;;;;13.82;8.63;;;1.40;99.90;;;;;;5015409;28;20081;-72
2022/11/20 05:47:32;;;;;;;14.20;9.35;;;1.30;99.90;;;;;;5015414;28;20038;-72
2022/11/20 05:49:58;;;;;;;14.30;9.38;;;1.20;99.90;;;;;;4995175;28;20046;-72
2022/11/20 05:52:24;;;;;;;15.95;9.25;;;1.10;99.90;;;;;;5013676;28;20121;-71
2022/11/20 05:54:49;;;;;;;13.70;8.85;;;1.00;99.90;;;;;;5014007;28;20124;-72
2022/11/20 05:57:15;;;;;;;15.93;9.13;;;1.00;99.90;;;;;;5015355;28;20042;-71
2022/11/20 05:59:41;;;;;;;15.15;8.52;;;1.00;99.90;;;;;;5015701;28;20041;-71
2022/11/20 06:02:06;;;;;;;14.80;9.20;;;1.10;99.90;;;;;;5015813;28;20042;-72
2022/11/20 06:04:32;;;;;;;14.75;8.52;;;1.20;99.90;;;;;;5015588;28;20046;-72
2022/11/20 06:06:57;;;;;;;16.40;9.45;;;1.20;99.90;;;;;;5014306;28;20078;-72
2022/11/20 06:09:23;;;;;;;15.68;9.00;;;1.20;99.90;;;;;;5015676;28;20455;-72
2022/11/20 06:11:48;;;;;;;14.43;8.95;;;1.20;99.90;;;;;;5015746;28;20414;-71
2022/11/20 06:14:14;;;;;;;14.90;8.73;;;1.20;99.90;;;;;;5015374;28;20046;-71
2022/11/20 06:16:39;;;;;;;14.43;8.25;;;1.20;99.90;;;;;;5015676;28;20038;-71
2022/11/20 06:19:05;;;;;;;14.02;8.88;;;1.20;99.90;;;;;;5014158;28;20037;-71
2022/11/20 06:21:31;;;;;;;15.00;9.13;;;1.20;99.90;;;;;;5015581;28;20042;-71
2022/11/20 06:23:56;;;;;;;15.65;8.70;;;1.30;99.90;;;;;;5015424;28;20034;-72
2022/11/20 06:26:24;;;;;;;14.02;8.68;;;1.40;99.90;;;;;;5015234;28;20139;-72
2022/11/20 06:28:51;;;;;;;12.48;6.88;;;1.50;99.90;;;;;;5015355;28;20052;-71
2022/11/20 06:31:20;;;;;;;15.85;8.50;;;1.50;99.90;;;;;;5014965;28;20033;-71
2022/11/20 06:33:46;;;;;;;15.75;8.15;;;1.40;99.90;;;;;;5015391;28;20088;-71
2022/11/20 06:36:13;;;;;;;13.65;8.52;;;1.50;99.90;;;;;;5013793;28;20041;-72
2022/11/20 06:38:39;;;;;;;15.07;8.80;;;1.50;99.90;;;;;;5015423;28;20049;-71
2022/11/20 06:41:07;;;;;;;14.25;8.57;;;1.60;99.90;;;;;;5015225;28;20411;-71
2022/11/20 06:43:33;;;;;;;14.93;9.23;;;1.50;99.90;;;;;;4997466;28;20042;-71
2022/11/20 06:45:59;;;;;;;14.73;8.60;;;1.40;99.90;;;;;;5015091;28;20046;-72
2022/11/20 06:48:27;;;;;;;18.45;14.25;;;1.30;99.90;;;;;;5014829;28;20038;-71
2022/11/20 06:50:52;;;;;;;20.40;15.82;;;1.20;99.90;;;;;;5013756;28;20034;-71
2022/11/20 06:53:18;;;;;;;15.48;9.85;;;1.20;99.90;;;;;;5014787;28;20045;-71
2022/11/20 06:55:46;;;;;;;13.35;8.40;;;1.20;99.90;;;;;;5014810;28;20080;-71
2022/11/20 06:58:15;;;;;;;13.68;8.48;;;1.20;99.90;;;;;;5014711;28;20049;-71
2022/11/20 07:00:41;;;;;;;14.10;8.70;;;1.20;99.90;;;;;;5014486;28;20567;-71
2022/11/20 07:03:08;;;;;;;14.23;8.43;;;1.20;99.90;;;;;;5014677;28;20088;-71
2022/11/20 07:05:34;;;;;;;13.85;8.57;;;1.30;99.90;;;;;;5013367;28;20077;-71
2022/11/20 07:08:00;;;;;;;13.77;8.70;;;1.40;99.90;;;;;;5014005;28;20042;-72
2022/11/20 07:10:26;;;;;;;13.80;8.85;;;1.40;99.90;;;;;;5012609;28;20038;-72
2022/11/20 07:12:53;;;;;;;12.98;8.82;;;1.40;99.90;;;;;;5013295;28;20046;-71
2022/11/20 07:15:23;;;;;;;14.07;8.20;;;1.40;99.90;;;;;;5011538;28;20055;-71
2022/11/20 07:17:49;;;;;;;14.20;8.52;;;1.30;99.90;;;;;;5006632;28;20060;-71
2022/11/20 07:20:15;;;;;;;13.00;7.93;;;1.30;99.90;;;;;;5004714;28;20042;-71
2022/11/20 07:22:41;;;;;;;14.52;8.98;;;1.30;99.90;;;;;;5013751;28;20570;-71
2022/11/20 07:25:08;;;;;;;15.45;8.45;;;1.30;99.90;;;;;;5011510;28;20482;-71
2022/11/20 07:27:34;;;;;;;14.77;8.52;;;1.30;99.90;;;;;;5013117;28;20049;-72
2022/11/20 07:29:59;;;;;;;14.73;8.77;;;1.30;99.90;;;;;;5012459;28;20045;-71
2022/11/20 07:32:25;;;;;;;13.55;8.10;;;1.30;99.90;;;;;;5011438;28;20042;-71
2022/11/20 07:34:50;;;;;;;15.18;8.98;;;1.30;99.90;;;;;;5013583;28;20387;-71
2022/11/20 07:37:16;;;;;;;14.77;8.85;;;1.30;99.90;;;;;;5011940;28;20109;-72
2022/11/20 07:39:42;;;;;;;13.55;7.85;;;1.40;99.90;;;;;;5012252;28;20034;-71
2022/11/20 07:42:08;;;;;;;13.98;8.10;;;1.40;99.90;;;;;;5013107;28;20077;-71
2022/11/20 07:44:34;;;;;;;12.60;7.68;;;1.40;99.90;;;;;;5013468;28;20482;-71
2022/11/20 07:47:00;;;;;;;13.98;8.73;;;1.50;99.90;;;;;;5013414;28;20092;-71
2022/11/20 07:49:25;;;;;;;14.15;9.00;;;1.50;99.90;;;;;;5006954;28;20026;-71
2022/11/20 07:51:53;;;;;;;14.23;8.15;;;1.40;99.90;;;;;;5011302;28;20117;-71
2022/11/20 07:54:19;;;;;;;12.68;7.75;;;1.40;99.90;;;;;;5013285;28;20073;-71
2022/11/20 07:56:45;;;;;;;13.02;7.72;;;1.40;99.90;;;;;;5010293;28;20034;-71
2022/11/20 07:59:11;;;;;;;13.55;8.30;;;1.40;99.90;;;;;;4995556;28;20407;-71
2022/11/20 08:01:37;;;;;;;13.98;7.95;;;1.40;99.90;;;;;;5009068;28;20376;-71
2022/11/20 08:04:03;;;;;;;13.50;8.23;;;1.40;99.90;;;;;;5007771;28;20558;-71
2022/11/20 08:06:29;;;;;;;13.52;7.90;;;1.50;99.90;;;;;;5012993;28;20121;-71
2022/11/20 08:08:54;;;;;;;13.10;8.20;;;1.50;99.90;;;;;;5012226;28;20038;-71
2022/11/20 08:14:13;;;;;;;13.70;7.97;;;1.50;99.90;;;;;;5012207;28;20042;-71
2022/11/20 08:16:44;;;;;;;13.02;7.47;;;1.40;99.90;;;;;;5010928;28;20046;-71
2022/11/20 08:19:09;;;;;;;11.98;7.75;;;1.50;99.90;;;;;;5011485;28;20088;-71
2022/11/20 08:21:35;;;;;;;11.98;7.65;;;1.50;99.90;;;;;;4994639;28;20391;-71
2022/11/20 08:24:01;;;;;;;12.60;7.30;;;1.60;99.90;;;;;;4994477;28;20038;-71
2022/11/20 08:26:26;;;;;;;12.80;7.18;;;1.60;99.90;;;;;;5011172;28;20129;-71
2022/11/20 08:28:56;;;;;;;13.95;7.90;;;1.60;99.90;;;;;;5012138;28;20060;-71
2022/11/20 08:31:23;;;;;;;12.55;8.05;;;1.60;99.90;;;;;;4998500;28;20168;-71
2022/11/20 08:33:49;;;;;;;13.60;6.85;;;1.70;99.90;;;;;;5007012;28;20637;-72
2022/11/20 08:36:15;;;;;;;14.15;8.02;;;1.70;99.90;;;;;;5011768;28;20502;-71
2022/11/20 08:38:40;;;;;;;12.57;7.68;;;1.70;99.90;;;;;;5009858;28;20393;-71
2022/11/20 08:41:25;;;;;;;12.23;8.02;;;1.70;99.90;;;;;;5012124;28;20129;-71
2022/11/20 08:43:52;;;;;;;15.63;8.32;;;1.60;99.90;;;;;;5007937;28;20401;-71
2022/11/20 08:46:18;;;;;;;12.93;7.47;;;1.60;99.90;;;;;;5000902;28;20129;-71
2022/11/20 08:48:44;;;;;;;12.85;7.32;;;1.60;99.90;;;;;;5009600;28;20118;-79
2022/11/20 08:51:10;;;;;;;15.30;8.32;;;1.70;99.90;;;;;;4994866;28;20034;-71
2022/11/20 08:53:36;;;;;;;13.90;7.70;;;1.90;99.90;;;;;;5010138;28;20371;-71
2022/11/20 08:56:02;;;;;;;12.55;7.40;;;1.80;99.90;;;;;;5012280;28;20045;-71
2022/11/20 08:58:27;;;;;;;13.13;7.50;;;1.80;99.90;;;;;;5010996;28;20052;-70
2022/11/20 09:00:53;;;;;;;10.95;6.72;;;1.80;99.90;;;;;;4994150;28;20471;-70
2022/11/20 09:03:19;;;;;;;13.13;7.22;;;1.80;99.90;;;;;;4999973;28;20050;-71
2022/11/20 09:05:45;;;;;;;12.73;7.05;;;1.80;99.90;;;;;;5010359;28;20034;-70
2022/11/20 09:08:10;;;;;;;13.82;8.00;;;2.00;99.90;;;;;;5011577;28;20490;-71
2022/11/20 09:10:39;;;;;;;11.90;6.90;;;2.00;99.90;;;;;;5012106;28;20037;-70
2022/11/20 09:13:05;;;;;;;13.02;7.15;;;1.90;99.90;;;;;;5010310;28;20050;-71
2022/11/20 09:15:30;;;;;;;12.48;7.25;;;1.90;99.90;;;;;;5008450;28;20443;-71
2022/11/20 09:17:58;;;;;;;11.88;7.68;;;1.90;99.90;;;;;;5007588;28;20042;-71
2022/11/20 09:20:25;;;;;;;12.00;7.28;;;1.90;99.90;;;;;;5007925;28;20390;-71
2022/11/20 09:22:51;;;;;;;12.10;7.50;;;1.90;99.90;;;;;;5012075;28;20113;-71
2022/11/20 09:25:17;;;;;;;13.23;7.68;;;1.90;99.90;;;;;;5015269;28;20081;-69
2022/11/20 09:27:43;;;;;;;12.40;7.38;;;1.90;99.90;;;;;;5014642;28;20065;-71
2022/11/20 09:30:10;;;;;;;11.93;7.20;;;2.00;99.90;;;;;;4997879;28;20059;-71
2022/11/20 09:32:35;;;;;;;12.55;7.63;;;2.10;99.90;;;;;;5013527;28;20045;-70
2022/11/20 09:35:01;;;;;;;13.13;7.65;;;2.10;99.90;;;;;;5013560;28;20042;-71
2022/11/20 09:37:27;;;;;;;12.70;7.20;;;2.10;99.90;;;;;;5014156;28;20052;-71
2022/11/20 09:39:53;;;;;;;13.13;7.30;;;2.10;99.90;;;;;;5012875;28;20046;-71
2022/11/20 09:42:46;;;;;;;12.48;7.50;;;2.10;99.90;;;;;;5015070;28;20034;-71
2022/11/20 09:45:50;;;;;;;12.65;7.15;;;2.10;99.90;;;;;;5014583;28;20042;-70
2022/11/20 09:48:53;;;;;;;11.48;6.90;;;2.20;99.90;;;;;;5014633;28;20037;-71
2022/11/20 09:51:42;;;;;;;13.02;7.43;;;2.30;99.90;;;;;;5013302;28;20041;-70
2022/11/20 09:54:10;;;;;;;13.80;8.10;;;2.20;99.90;;;;;;5014667;28;20046;-71
2022/11/20 09:56:44;;;;;;;12.80;7.43;;;2.20;99.90;;;;;;5013512;28;20096;-71
2022/11/20 09:59:32;;;;;;;12.48;7.05;;;2.30;99.90;;;;;;5011331;28;20052;-70
2022/11/20 10:01:59;;;;;;;12.88;7.00;;;2.30;99.90;;;;;;5014677;28;20453;-70
2022/11/20 10:04:24;;;;;;;11.77;6.88;;;2.30;99.90;;;;;;5014297;28;20053;-70
2022/11/20 10:07:13;;;;;;;10.70;5.95;;;2.30;99.90;;;;;;5013252;28;20093;-71
2022/11/20 10:09:43;;;;;;;11.45;6.45;;;2.40;99.90;;;;;;5013653;28;20081;-70
2022/11/20 10:12:19;;;;;;;12.50;6.97;;;2.30;99.90;;;;;;5014534;28;20117;-70
2022/11/20 10:15:03;;;;;;;11.55;6.57;;;2.20;99.90;;;;;;5014492;28;20045;-70
2022/11/20 10:17:58;;;;;;;11.57;6.55;;;2.30;99.90;;;;;;5013270;28;20056;-70
2022/11/20 10:20:49;;;;;;;11.38;6.60;;;2.30;99.90;;;;;;5013180;28;20394;-70
2022/11/20 10:23:52;;;;;;;12.13;7.00;;;2.30;99.90;;;;;;5015240;28;20095;-70
2022/11/20 10:26:22;;;;;;;12.90;7.13;;;2.30;99.90;;;;;;4994148;28;20078;-70
2022/11/20 10:28:54;;;;;;;10.95;6.43;;;2.30;99.90;;;;;;5014879;28;20108;-70
2022/11/20 10:31:33;;;;;;;12.82;7.07;;;2.30;99.90;;;;;;5013547;28;20042;-70
2022/11/20 10:34:03;;;;;;;12.38;7.05;;;2.40;99.90;;;;;;5014060;28;20045;-70
2022/11/20 10:36:44;;;;;;;10.95;6.60;;;2.40;99.90;;;;;;5011901;28;20081;-70
2022/11/20 10:39:16;;;;;;;11.60;6.33;;;2.40;99.90;;;;;;5011802;28;20041;-70
2022/11/20 10:41:42;;;;;;;12.15;6.75;;;2.40;99.90;;;;;;5014442;28;20046;-70
2022/11/20 10:47:21;;;;;;;11.18;6.70;;;2.50;99.90;;;;;;5014617;28;20050;-70
2022/11/20 10:49:51;;;;;;;11.80;6.28;;;2.60;99.90;;;;;;5014758;28;20052;-70
2022/11/20 10:52:30;;;;;;;12.38;6.85;;;2.60;99.90;;;;;;5006531;28;20517;-70
2022/11/20 10:55:16;;;;;;;10.40;6.45;;;2.60;99.90;;;;;;5012288;28;20052;-70
2022/11/20 10:58:19;;;;;;;10.18;5.70;;;2.60;99.90;;;;;;5012784;28;20540;-70
2022/11/20 11:00:44;;;;;;;;;;;2.70;99.90;;;;;;5012495;28;20083;-69
2022/11/20 11:03:23;;;;;;;9.90;5.38;;;2.70;99.90;;;;;;5014513;28;20012;-70
2022/11/20 11:05:56;;;;;;;9.18;5.30;;;2.70;99.90;;;;;;5012523;28;20099;-69
2022/11/20 11:08:26;;;;;;;10.45;5.72;;;2.70;99.90;;;;;;5008982;28;20108;-70
2022/11/20 11:10:55;;;;;;;11.00;6.35;;;2.70;99.90;;;;;;5013329;28;20406;-69
2022/11/20 11:13:23;;;;;;;9.50;5.55;;;2.60;99.90;;;;;;5013644;28;20406;-70
2022/11/20 11:15:50;;;;;;;10.13;5.63;;;2.70;99.90;;;;;;5009493;28;20061;-69
2022/11/20 11:18:29;;;;;;;10.30;5.65;;;2.60;99.90;;;;;;5012681;28;20049;-69
2022/11/20 11:20:57;;;;;;;9.77;5.45;;;2.60;99.90;;;;;;5013303;28;20493;-69
2022/11/20 11:23:36;;;;;;;11.00;6.30;;;2.60;99.90;;;;;;5012444;28;20462;-69
2022/11/20 11:26:04;;;;;;;11.73;5.88;;;2.60;99.90;;;;;;5012902;28;20049;-69
2022/11/20 11:28:30;;;;;;;10.52;6.68;;;2.60;99.90;;;;;;5009198;28;20042;-69
2022/11/20 11:30:56;;;;;;;11.00;6.22;;;2.60;99.90;;;;;;4994016;28;20053;-69
2022/11/20 11:33:27;;;;;;;10.40;5.90;;;2.60;99.90;;;;;;5008294;28;20030;-69
2022/11/20 11:36:02;;;;;;;12.10;6.70;;;2.70;99.90;;;;;;5010065;28;20045;-69
2022/11/20 11:38:52;;;;;;;11.90;6.90;;;2.70;99.90;;;;;;5008381;28;20048;-69
2022/11/20 11:41:23;;;;;;;11.82;5.88;;;2.80;99.90;;;;;;4993349;28;20054;-69
2022/11/20 11:46:49;;;;;;;11.07;6.53;;;2.90;99.90;;;;;;5010316;28;20045;-69
2022/11/20 11:49:17;;;;;;;12.23;6.05;;;2.90;99.90;;;;;;5012618;28;20520;-69
2022/11/20 11:52:01;;;;;;;10.55;5.70;;;2.90;99.90;;;;;;5012352;28;20034;-69
2022/11/20 11:54:34;;;;;;;9.25;5.38;;;2.90;99.90;;;;;;5012335;28;20081;-69
2022/11/20 11:57:05;;;;;;;9.52;5.65;;;2.90;99.90;;;;;;5011997;28;20049;-69
2022/11/20 12:00:01;;;;;;;11.43;5.75;;;2.90;99.90;;;;;;5012080;28;20038;-70
2022/11/20 12:02:35;;;;;;;10.40;5.85;;;2.90;99.90;;;;;;4997969;28;20049;-69
2022/11/20 12:05:15;;;;;;;10.13;5.88;;;2.90;99.90;;;;;;5012516;28;20045;-69
2022/11/20 12:07:47;;;;;;;10.75;5.72;;;2.90;99.90;;;;;;5012424;28;20050;-69
2022/11/20 12:10:22;;;;;;;11.25;6.22;;;2.90;99.90;;;;;;5013395;28;20038;-69
2022/11/20 12:12:53;;;;;;;10.02;5.97;;;3.00;99.90;;;;;;5003685;28;20073;-69
2022/11/20 12:15:46;;;;;;;10.57;5.82;;;3.10;99.90;;;;;;5007265;28;20080;-69
2022/11/20 12:18:21;;;;;;;9.68;5.80;;;3.20;99.90;;;;;;5003393;28;20046;-69
2022/11/20 12:21:00;;;;;;;10.77;5.80;;;3.20;99.90;;;;;;4993843;28;20034;-71
2022/11/20 12:23:40;;;;;;;11.02;5.05;;;3.30;99.90;;;;;;4988073;28;20136;-69
2022/11/20 12:26:20;;;;;;;11.40;6.03;;;3.30;99.90;;;;;;5012335;28;20054;-69
2022/11/20 12:29:15;;;;;;;8.48;4.72;;;3.40;99.90;;;;;;5009081;28;20053;-69
2022/11/20 12:31:55;;;;;;;8.98;4.32;;;3.50;99.90;;;;;;5008744;28;20137;-69
2022/11/20 12:34:47;;;;;;;9.43;5.20;;;3.50;99.90;;;;;;5016691;28;20389;-69
2022/11/20 12:37:30;;;;;;;10.38;5.45;;;3.50;99.90;;;;;;5011947;28;20375;-69
2022/11/20 12:40:01;;;;;;;10.98;5.47;;;3.50;99.90;;;;;;4999015;28;20386;-69
2022/11/20 12:45:59;;;;;;;9.00;4.97;;;3.50;99.90;;;;;;5005362;28;20129;-69
2022/11/20 12:48:28;;;;;;;10.30;5.78;;;3.50;99.90;;;;;;5003820;28;20496;-69
2022/11/20 12:51:23;;;;;;;10.75;5.53;;;3.40;99.90;;;;;;5005289;28;20037;-69
2022/11/20 12:54:14;;;;;;;10.75;5.30;;;3.40;99.90;;;;;;5008914;28;20083;-69
2022/11/20 12:56:48;;;;;;;10.90;5.50;;;3.40;99.90;;;;;;5008983;28;20532;-69
2022/11/20 12:59:14;;;;;;;10.70;5.68;;;3.40;99.90;;;;;;4996836;28;20053;-69
2022/11/20 13:02:11;;;;;;;10.57;5.72;;;3.40;99.90;;;;;;5016137;28;20516;-69
2022/11/20 13:04:52;;;;;;;10.55;5.38;;;3.40;99.90;;;;;;5014374;28;20085;-69
2022/11/20 13:07:19;;;;;;;10.23;5.63;;;3.40;99.90;;;;;;4997912;28;20413;-69
2022/11/20 13:09:48;;;;;;;10.82;5.97;;;3.50;99.90;;;;;;5005174;28;20044;-69